createdAt,value
2022-08-10T00:01:34.000Z,21.85
2022-08-10T00:06:28.000Z,21.76
2022-08-10T00:11:23.000Z,21.73
2022-08-10T00:16:18.000Z,21.72
2022-08-10T00:21:12.000Z,21.7
2022-08-10T00:26:07.000Z,21.66
2022-08-10T00:31:02.000Z,21.58
2022-08-10T00:35:56.000Z,21.63
2022-08-10T00:40:51.000Z,21.5
2022-08-10T00:45:46.000Z,21.5
2022-08-10T00:50:41.000Z,21.37
2022-08-10T00:55:35.000Z,21.33
2022-08-10T01:00:28.000Z,21.34
2022-08-10T01:05:22.000Z,21.39
2022-08-10T01:10:16.000Z,21.28
2022-08-10T01:15:11.000Z,21.39
2022-08-10T01:20:06.000Z,21.32
2022-08-10T01:25:01.000Z,21.23
2022-08-10T01:29:55.000Z,21.36
2022-08-10T01:34:51.000Z,21.3
2022-08-10T01:39:44.000Z,21.11
2022-08-10T01:44:39.000Z,21.06
2022-08-10T01:49:33.000Z,21.13
2022-08-10T01:54:27.000Z,21.06
2022-08-10T01:59:21.000Z,20.94
2022-08-10T02:04:15.000Z,20.85
2022-08-10T02:09:09.000Z,20.95
2022-08-10T02:14:03.000Z,20.89
2022-08-10T02:18:57.000Z,20.89
2022-08-10T02:23:52.000Z,20.87
2022-08-10T02:28:46.000Z,20.86
2022-08-10T02:33:40.000Z,20.96
2022-08-10T02:38:34.000Z,20.96
2022-08-10T02:43:29.000Z,20.99
2022-08-10T02:48:23.000Z,20.88
2022-08-10T02:53:18.000Z,20.88
2022-08-10T02:58:13.000Z,20.84
2022-08-10T03:03:07.000Z,20.79
2022-08-10T03:08:02.000Z,20.51
2022-08-10T03:12:56.000Z,20.28
2022-08-10T03:17:51.000Z,19.95
2022-08-10T03:22:44.000Z,19.68
2022-08-10T03:27:39.000Z,19.39
2022-08-10T03:32:33.000Z,19.16
2022-08-10T03:37:28.000Z,18.67
2022-08-10T03:42:23.000Z,18.51
2022-08-10T03:47:17.000Z,18.26
2022-08-10T03:52:12.000Z,18.3
2022-08-10T03:57:06.000Z,18.2
2022-08-10T04:02:00.000Z,18.31
2022-08-10T04:06:54.000Z,18.41
2022-08-10T04:11:49.000Z,18.09
2022-08-10T04:16:44.000Z,18.37
2022-08-10T04:21:38.000Z,18.52
2022-08-10T04:26:33.000Z,18.93
2022-08-10T04:31:27.000Z,18.99
2022-08-10T04:36:22.000Z,18.86
2022-08-10T04:41:16.000Z,18.53
2022-08-10T04:46:11.000Z,18.41
2022-08-10T04:51:06.000Z,18.06
2022-08-10T04:56:00.000Z,18.05
2022-08-10T05:00:54.000Z,18.04
2022-08-10T05:05:48.000Z,18.12
2022-08-10T05:10:43.000Z,18.16
2022-08-10T05:15:37.000Z,18.43
2022-08-10T05:20:31.000Z,18.44
2022-08-10T05:25:26.000Z,18.69
2022-08-10T05:30:21.000Z,19.12
2022-08-10T05:35:15.000Z,19.15
2022-08-10T05:40:10.000Z,19.43
2022-08-10T05:45:03.000Z,19.46
2022-08-10T05:49:57.000Z,19.93
2022-08-10T05:54:52.000Z,20.04
2022-08-10T05:59:47.000Z,20.1
2022-08-10T06:04:42.000Z,20.27
2022-08-10T06:09:35.000Z,20.48
2022-08-10T06:14:30.000Z,20.79
2022-08-10T06:19:24.000Z,21.14
2022-08-10T06:24:18.000Z,21.47
2022-08-10T06:29:13.000Z,21.49
2022-08-10T06:34:07.000Z,21.41
2022-08-10T06:39:01.000Z,21.61
2022-08-10T06:43:55.000Z,21.62
2022-08-10T06:48:49.000Z,21.88
2022-08-10T06:53:44.000Z,21.93
2022-08-10T06:58:39.000Z,22.27
2022-08-10T07:03:33.000Z,22.46
2022-08-10T07:08:28.000Z,22.73
2022-08-10T07:13:23.000Z,22.88
2022-08-10T07:18:17.000Z,23.06
2022-08-10T07:23:12.000Z,23.04
2022-08-10T07:28:07.000Z,23.29
2022-08-10T07:33:02.000Z,23.15
2022-08-10T07:37:56.000Z,23.25
2022-08-10T07:42:51.000Z,23.79
2022-08-10T07:47:43.000Z,23.64
2022-08-10T07:52:36.000Z,23.89
2022-08-10T07:57:31.000Z,24.13
2022-08-10T08:02:25.000Z,24.35
2022-08-10T08:07:19.000Z,24.78
2022-08-10T08:12:14.000Z,24.8
2022-08-10T08:17:08.000Z,24.96
2022-08-10T08:22:03.000Z,25.38
2022-08-10T08:26:57.000Z,25.46
2022-08-10T08:31:52.000Z,25.85
2022-08-10T08:36:47.000Z,25.98
2022-08-10T08:41:42.000Z,26.79
2022-08-10T08:46:36.000Z,27.13
2022-08-10T08:51:30.000Z,26.88
2022-08-10T08:56:25.000Z,26.93
2022-08-10T09:01:20.000Z,27.11
2022-08-10T09:06:15.000Z,27.35
2022-08-10T09:11:08.000Z,27.66
2022-08-10T09:16:03.000Z,27.71
2022-08-10T09:20:57.000Z,27.71
2022-08-10T09:25:52.000Z,28.2
2022-08-10T09:30:45.000Z,28.27
2022-08-10T09:35:40.000Z,28.41
2022-08-10T09:40:35.000Z,28.81
2022-08-10T09:45:29.000Z,29.11
2022-08-10T09:50:24.000Z,31.21
2022-08-10T09:55:20.000Z,33.06
2022-08-10T10:00:18.000Z,33.05
2022-08-10T10:05:13.000Z,33.69
2022-08-10T10:10:09.000Z,33.65
2022-08-10T10:15:04.000Z,33.2
2022-08-10T10:19:59.000Z,32.96
2022-08-10T10:24:53.000Z,33.23
2022-08-10T10:29:48.000Z,33.58
2022-08-10T10:34:44.000Z,33.77
2022-08-10T10:39:37.000Z,33.4
2022-08-10T10:44:32.000Z,34.83
2022-08-10T10:49:26.000Z,34.11
2022-08-10T10:54:22.000Z,35.06
2022-08-10T10:59:17.000Z,33.92
2022-08-10T11:04:11.000Z,34.62
2022-08-10T11:09:06.000Z,34.7
2022-08-10T11:14:01.000Z,34.48
2022-08-10T11:18:56.000Z,35
2022-08-10T11:23:50.000Z,35.75
2022-08-10T11:28:45.000Z,35.51
2022-08-10T11:33:41.000Z,35.63
2022-08-10T11:38:35.000Z,35.18
2022-08-10T11:43:28.000Z,35.09
2022-08-10T11:48:22.000Z,36.02
2022-08-10T11:53:18.000Z,37.29
2022-08-10T11:58:13.000Z,37.66
2022-08-10T12:03:08.000Z,36.99
2022-08-10T12:08:03.000Z,36.13
2022-08-10T12:12:58.000Z,36.09
2022-08-10T12:17:53.000Z,35.26
2022-08-10T12:22:47.000Z,36.28
2022-08-10T12:27:43.000Z,36.47
2022-08-10T12:32:37.000Z,37.41
2022-08-10T12:37:31.000Z,37.18
2022-08-10T12:42:26.000Z,36.95
2022-08-10T12:47:20.000Z,38.12
2022-08-10T12:52:15.000Z,38.25
2022-08-10T12:57:10.000Z,36.02
2022-08-10T13:02:05.000Z,35.35
2022-08-10T13:06:59.000Z,36.37
2022-08-10T13:11:54.000Z,38.31
2022-08-10T13:16:49.000Z,37.97
2022-08-10T13:21:45.000Z,38.59
2022-08-10T13:26:39.000Z,38.77
2022-08-10T13:31:34.000Z,37.31
2022-08-10T13:36:28.000Z,37.24
2022-08-10T13:41:22.000Z,38.31
2022-08-10T13:46:17.000Z,39.32
2022-08-10T13:51:09.000Z,39.32
2022-08-10T13:56:04.000Z,39.05
2022-08-10T14:00:59.000Z,40.55
2022-08-10T14:05:53.000Z,38.36
2022-08-10T14:10:48.000Z,39.27
2022-08-10T14:15:43.000Z,38.65
2022-08-10T14:20:38.000Z,38.77
2022-08-10T14:25:32.000Z,38.4
2022-08-10T14:30:27.000Z,37.31
2022-08-10T14:35:21.000Z,38.42
2022-08-10T14:40:15.000Z,38.23
2022-08-10T14:45:10.000Z,37.97
2022-08-10T14:50:05.000Z,37.86
2022-08-10T14:54:59.000Z,38.09
2022-08-10T14:59:53.000Z,38.67
2022-08-10T15:04:48.000Z,38.91
2022-08-10T15:09:43.000Z,38.34
2022-08-10T15:14:37.000Z,38.71
2022-08-10T15:19:32.000Z,38.88
2022-08-10T15:24:27.000Z,39.98
2022-08-10T15:29:22.000Z,37.61
2022-08-10T15:34:16.000Z,37.37
2022-08-10T15:39:11.000Z,37.23
2022-08-10T15:44:05.000Z,37.54
2022-08-10T15:49:00.000Z,39.59
2022-08-10T15:53:56.000Z,39.89
2022-08-10T15:58:51.000Z,39.42
2022-08-10T16:03:46.000Z,38.19
2022-08-10T16:08:40.000Z,37.67
2022-08-10T16:13:35.000Z,38.19
2022-08-10T16:18:29.000Z,39.42
2022-08-10T16:23:24.000Z,38.09
2022-08-10T16:28:18.000Z,38.71
2022-08-10T16:33:11.000Z,38.8
2022-08-10T16:38:06.000Z,37.73
2022-08-10T16:42:59.000Z,36.99
2022-08-10T16:47:54.000Z,37.17
2022-08-10T16:52:48.000Z,36.94
2022-08-10T16:57:43.000Z,36.54
2022-08-10T17:02:38.000Z,35.68
2022-08-10T17:07:30.000Z,35.55
2022-08-10T17:12:25.000Z,36.67
2022-08-10T17:17:19.000Z,36.18
2022-08-10T17:22:14.000Z,35.1
2022-08-10T17:27:09.000Z,35.91
2022-08-10T17:32:01.000Z,35.31
2022-08-10T17:36:55.000Z,35.37
2022-08-10T17:41:50.000Z,35.14
2022-08-10T17:46:45.000Z,34.84
2022-08-10T17:51:39.000Z,33.97
2022-08-10T17:56:33.000Z,32.85
2022-08-10T18:01:28.000Z,32.96
2022-08-10T18:06:22.000Z,32.98
2022-08-10T18:11:15.000Z,32.48
2022-08-10T18:16:10.000Z,31.7
2022-08-10T18:21:04.000Z,30.28
2022-08-10T18:25:58.000Z,28.91
2022-08-10T18:30:52.000Z,28.33
2022-08-10T18:35:46.000Z,28
2022-08-10T18:40:40.000Z,27.67
2022-08-10T18:45:34.000Z,27.29
2022-08-10T18:50:29.000Z,27.05
2022-08-10T18:55:23.000Z,26.76
2022-08-10T19:00:18.000Z,26.51
2022-08-10T19:05:12.000Z,26.44
2022-08-10T19:10:06.000Z,26.21
2022-08-10T19:15:01.000Z,26.04
2022-08-10T19:19:55.000Z,25.82
2022-08-10T19:24:48.000Z,25.6
2022-08-10T19:29:43.000Z,25.46
2022-08-10T19:34:38.000Z,25.25
2022-08-10T19:39:32.000Z,25.15
2022-08-10T19:44:27.000Z,25.03
2022-08-10T19:49:22.000Z,25
2022-08-10T19:54:17.000Z,24.89
2022-08-10T19:59:11.000Z,24.92
2022-08-10T20:04:05.000Z,24.8
2022-08-10T20:08:59.000Z,24.82
2022-08-10T20:13:53.000Z,24.66
2022-08-10T20:18:46.000Z,24.58
2022-08-10T20:23:40.000Z,24.57
2022-08-10T20:28:34.000Z,24.46
2022-08-10T20:33:28.000Z,24.42
2022-08-10T20:38:23.000Z,24.28
2022-08-10T20:43:17.000Z,24.25
2022-08-10T20:48:10.000Z,24.07
2022-08-10T20:53:05.000Z,24.12
2022-08-10T20:58:00.000Z,24.08
2022-08-10T21:02:54.000Z,24.06
2022-08-10T21:07:48.000Z,24.11
2022-08-10T21:12:42.000Z,24.07
2022-08-10T21:17:36.000Z,24.01
2022-08-10T21:22:30.000Z,24.03
2022-08-10T21:27:25.000Z,23.93
2022-08-10T21:32:19.000Z,23.86
2022-08-10T21:37:13.000Z,23.86
2022-08-10T21:42:07.000Z,23.88
2022-08-10T21:47:02.000Z,23.87
2022-08-10T21:51:57.000Z,23.97
2022-08-10T21:56:51.000Z,24.08
2022-08-10T22:01:43.000Z,24.01
2022-08-10T22:06:38.000Z,23.97
2022-08-10T22:11:32.000Z,23.88
2022-08-10T22:16:27.000Z,23.89
2022-08-10T22:21:22.000Z,23.84
2022-08-10T22:26:16.000Z,23.87
2022-08-10T22:31:11.000Z,23.8
2022-08-10T22:36:06.000Z,23.77
2022-08-10T22:41:01.000Z,23.74
2022-08-10T22:45:55.000Z,23.66
2022-08-10T22:50:49.000Z,23.52
2022-08-10T22:55:44.000Z,23.45
2022-08-10T23:00:38.000Z,23.47
2022-08-10T23:05:33.000Z,23.51
2022-08-10T23:10:28.000Z,23.46
2022-08-10T23:15:22.000Z,23.54
2022-08-10T23:20:17.000Z,23.5
2022-08-10T23:25:12.000Z,23.48
2022-08-10T23:30:07.000Z,23.33
2022-08-10T23:35:01.000Z,23.26
2022-08-10T23:39:56.000Z,23.18
2022-08-10T23:44:51.000Z,23.14
2022-08-10T23:49:45.000Z,23.06
2022-08-10T23:54:41.000Z,23.09
2022-08-10T23:59:35.000Z,23.02
